ITY1415 LICJ-EDDM
Flight info
| Callsign | ITY1415 |
|---|---|
| Flight time | N/A |
| Altitude | 38000 |
| Route | LURON DCT DORAS DCT BEROL DCT PNZ DCT LAT DCT SUMIR DCT NAXAV DCT SOTOV T101 BETOS BETOS1B |
| Aircraft | B738/M-SDE3FGHIRWY/LB1 |
Departure
| Time | 2026-05-07 08:50 |
|---|---|
| Airport | Falcone–Borsellino Airport (LICJ) |
Arrival
| Time | N/A |
|---|---|
| Airport | Munich Airport (EDDM) |
| Time | Latitude | Longitude | Altitude | Speed | Heading |
|---|---|---|---|---|---|
| 2026-05-07 08:17 | 38.18341 | 13.10269 | 46 ft | 0 kts | 246° |
| 2026-05-07 08:44 | 38.18339 | 13.10263 | 46 ft | 2 kts | 247° |
| 2026-05-07 08:44 | 38.18328 | 13.10228 | 43 ft | 6 kts | 248° |
| 2026-05-07 08:44 | 38.18304 | 13.10167 | 44 ft | 9 kts | 230° |
| 2026-05-07 08:44 | 38.18242 | 13.10124 | 42 ft | 10 kts | 202° |
| 2026-05-07 08:45 | 38.18192 | 13.10058 | 44 ft | 11 kts | 239° |
| 2026-05-07 08:45 | 38.18157 | 13.09964 | 41 ft | 13 kts | 247° |
| 2026-05-07 08:45 | 38.18100 | 13.09883 | 43 ft | 13 kts | 197° |
| 2026-05-07 08:45 | 38.18035 | 13.09820 | 44 ft | 12 kts | 235° |
| 2026-05-07 08:46 | 38.17997 | 13.09720 | 42 ft | 13 kts | 247° |
| 2026-05-07 08:46 | 38.17959 | 13.09608 | 42 ft | 14 kts | 246° |
| 2026-05-07 08:46 | 38.17918 | 13.09487 | 41 ft | 16 kts | 247° |
| 2026-05-07 08:46 | 38.17874 | 13.09357 | 40 ft | 16 kts | 247° |
| 2026-05-07 08:47 | 38.17833 | 13.09231 | 42 ft | 15 kts | 247° |
| 2026-05-07 08:47 | 38.17790 | 13.09103 | 41 ft | 16 kts | 246° |
| 2026-05-07 08:47 | 38.17741 | 13.08973 | 41 ft | 16 kts | 237° |
| 2026-05-07 08:47 | 38.17661 | 13.08879 | 42 ft | 13 kts | 217° |
| 2026-05-07 08:48 | 38.17657 | 13.08875 | 42 ft | 0 kts | 217° |
| 2026-05-07 08:49 | 38.17649 | 13.08867 | 42 ft | 8 kts | 217° |
| 2026-05-07 08:49 | 38.17547 | 13.08799 | 41 ft | 18 kts | 171° |
| 2026-05-07 08:49 | 38.17523 | 13.08923 | 42 ft | 17 kts | 69° |
| 2026-05-07 08:49 | 38.17602 | 13.09161 | 41 ft | 55 kts | 67° |
| 2026-05-07 08:50 | 38.17849 | 13.09897 | 42 ft | 124 kts | 67° |
| 2026-05-07 08:50 | 38.18246 | 13.11063 | 421 ft | 148 kts | 68° |
| 2026-05-07 08:50 | 38.18680 | 13.12330 | 1128 ft | 165 kts | 69° |
| 2026-05-07 08:50 | 38.19139 | 13.13701 | 2012 ft | 174 kts | 68° |
| 2026-05-07 08:51 | 38.19637 | 13.15195 | 2520 ft | 192 kts | 68° |
| 2026-05-07 08:51 | 38.20173 | 13.16801 | 3095 ft | 205 kts | 69° |
| 2026-05-07 08:51 | 38.20795 | 13.18508 | 3550 ft | 223 kts | 60° |
| 2026-05-07 08:51 | 38.21887 | 13.19986 | 4105 ft | 236 kts | 38° |
| 2026-05-07 08:52 | 38.23371 | 13.20942 | 4803 ft | 245 kts | 27° |
| 2026-05-07 08:52 | 38.25008 | 13.21815 | 5358 ft | 263 kts | 25° |
| 2026-05-07 08:52 | 38.26728 | 13.22697 | 6169 ft | 271 kts | 25° |
| 2026-05-07 08:52 | 38.28484 | 13.23605 | 6952 ft | 276 kts | 25° |
| 2026-05-07 08:53 | 38.30276 | 13.24552 | 7710 ft | 283 kts | 25° |
| 2026-05-07 08:53 | 38.32109 | 13.25533 | 8438 ft | 290 kts | 25° |
| 2026-05-07 08:53 | 38.33987 | 13.26540 | 9179 ft | 297 kts | 25° |
| 2026-05-07 08:53 | 38.35911 | 13.27568 | 9893 ft | 304 kts | 25° |
| 2026-05-07 08:54 | 38.37896 | 13.28626 | 10380 ft | 318 kts | 25° |
| 2026-05-07 08:54 | 38.40046 | 13.29556 | 10751 ft | 336 kts | 13° |
| 2026-05-07 08:54 | 38.42384 | 13.29768 | 11427 ft | 341 kts | 356° |
| 2026-05-07 08:54 | 38.44715 | 13.29179 | 12138 ft | 343 kts | 341° |